2018/11/15 11:00 VVNB 151100Z 12011KT CAVOK 27/22 Q1011 NOSIG
2018/11/15 11:00 VVDN 151100Z 10004KT 050V150 9999 FEW013 27/24 Q1012 NOSIG
2018/11/15 11:00 VVTS 151100Z 15007KT 120V180 9999 FEW017 30/22 Q1009 NOSIG
2018/11/15 11:00 VVPB 151100Z 09008KT 9999 FEW015 SCT050 27/24 Q1012 NOSIG

Powered by MinhViet JSC.